Gothenburg, NE

6:56 PM CDT on August 04, 2015 (GMT -0500)
KNEGOTHE4 | | Change Station
CLOSE
Current Station
Personal Weather Station
Location: Gothenburg, NE
Elevation: 2572 ft
Nearby Weather Stations
Active Advisory: Severe Thunderstorm Watch

Elev 2572 ft 40.92 °N, 100.17 °W | Updated 54 seconds ago

Thunderstorm
Thunderstorm
65.6 °F
Feels Like 65.6 °F
N
1.0
Wind Variable Wind from SSW
Gusts 1.0 mph

Today
High -- | Low -- °F
--% Chance of Precip.
Yesterday
High -- | Low -- °F
Precip. -- in
6:39 AM 8:53 PM
Waning Gibbous, 73% visible
Pressure 29.93 in
Visibility 10.0 miles
Clouds Scattered Clouds 1300 ft
Mostly Cloudy 7000 ft
Overcast 11000 ft
Dew Point 62 °F
Humidity 88%
Rainfall 0.42 in
Snow Depth Not available.
UV 1 out of 12
Pollen 7.90 out of 12
Air Quality Not available.
Flu Activity Not available.
METAR KLXN 042335Z AUTO 26008KT 10SM -RA SCT013 BKN070 OVC110 18/18 A2993 RMK AO2 P0002 T01820175

More Conditions Fewer Conditions

Pressure 29.93 in
Visibility 10.0 miles
Clouds Scattered Clouds 1300 ft
Mostly Cloudy 7000 ft
Overcast 11000 ft
Dew Point 62 °F
Humidity 88%
Rainfall 0.42 in
Snow Depth Not available.
UV 1 out of 12
Pollen 7.90 out of 12
Air Quality Not available.
Flu Activity Not available.
METAR KLXN 042335Z AUTO 26008KT 10SM -RA SCT013 BKN070 OVC110 18/18 A2993 RMK AO2 P0002 T01820175

More Conditions Fewer Conditions

10-Day Weather Forecast

×

Almanac

Astronomy

Aug. 04, 2015 Rise Set
Actual Time
Civil Twilight
Nautical Twilight
Astronomical Twilight
Moon
Length of Visible Light
Length of Day
Tomorrow will be .
, % of the Moon is Illuminated

Today's Extremes

State Highs State Lows

Community

WunderPhotos

Upload Photos

1,844,023 photos uploaded!

WunderBlogs® & News

Nearby

Air Quality

  Air Quality AQ Index Pollutant
Not available.

Snow Depth

Station Depth Elevation

Earthquake Activity

City Distance Mag. Time & Date
Minimum magnitude displayed is 2.5.

Coastal Water Temperatures

Place Temperature

Stations

Nearby Weather Stations

Station Location Temp. Windchill Dew Point Humidity Wind Precip. Elev Updated Type
                   
Severe Thunderstorm Watch
Statement as of 6:43 PM CDT on August 04, 2015

Severe Thunderstorm Watch 470 remains in effect until 900 PM CDT

NE
. Nebraska counties included are

Adams Buffalo Dawson
Franklin Furnas Gosper
Harlan Kearney Nuckolls
Phelps Webster